Pescara - LIBP

Metar : METAR LIBP 211050Z AUTO 05007KT 020V080 9999 NCD 30/20 Q1010=

Taf : TAF LIBP 210500Z 2106/2206 VRB06KT CAVOK BECMG 2108/2110 08010KT BECMG 2114/2116 VRB06KT=

 Scopri come leggere i bollettini codificati...


Storico

LIBP 211050Z AUTO 05007KT 020V080 9999 NCD 30/20 Q1010
LIBP 211020Z AUTO 05010KT 9999 NCD 30/21 Q1010
LIBP 210950Z AUTO 04009KT 9999 NCD 29/22 Q1010
LIBP 210920Z AUTO 04008KT 9999 NCD 31/20 Q1010
LIBP 210850Z AUTO 04010KT 9999 NCD 32/19 Q1010
LIBP 210820Z AUTO 11003KT 060V160 9999 NCD 33/18 Q1010
LIBP 210750Z AUTO VRB03KT 9999 NCD 32/17 Q1010
LIBP 210720Z AUTO 15003KT 070V200 9999 NCD 32/17 Q1010
LIBP 210650Z AUTO 03004KT 330V130 9999 NCD 31/18 Q1010
LIBP 210620Z AUTO 07004KT 020V100 9999 BKN180/// 28/18 Q1009
LIBP 210550Z AUTO 08003KT 050V110 9999 BKN180/// 27/16 Q1009
LIBP 210520Z AUTO VRB01KT 9999 BKN190/// 26/16 Q1009
LIBP 210450Z AUTO 11004KT 080V140 9999 FEW190/// 25/16 Q1009
LIBP 210420Z AUTO 02003KT 340V040 9999 NCD 22/15 Q1009
LIBP 210350Z AUTO VRB02KT 9999 NCD 22/15 Q1008
LIBP 210320Z AUTO VRB01KT 9999 NCD 22/16 Q1008
LIBP 210250Z AUTO 04004KT 9999 NCD 24/15 Q1008
LIBP 210220Z AUTO 10003KT 070V130 9999 FEW190/// 23/17 Q1008
LIBP 210150Z AUTO 34003KT 9999 FEW190/// 23/17 Q1008
LIBP 210120Z AUTO VRB02KT 9999 NCD 22/17 Q1008
LIBP 210050Z AUTO VRB02KT 9999 NCD 22/17 Q1009
LIBP 210020Z AUTO VRB01KT 9999 NCD 22/17 Q1009
LIBP 202350Z AUTO 24003KT 200V270 9999 NCD 22/18 Q1009
LIBP 202320Z AUTO VRB02KT 9999 NCD 24/18 Q1009
LIBP 202250Z AUTO 25002KT 9999 NCD 23/18 Q1010
LIBP 202220Z AUTO 20002KT 9999 FEW150/// 25/18 Q1010
LIBP 202150Z AUTO 24003KT 200V310 9999 NCD 25/18 Q1010
LIBP 202120Z AUTO 09003KT 060V130 9999 NCD 24/18 Q1011
LIBP 202050Z AUTO VRB02KT 9999 NCD 24/17 Q1011
LIBP 202020Z AUTO 25004KT 9999 NCD 26/18 Q1011
LIBP 201950Z AUTO 23003KT 190V260 9999 NCD 27/18 Q1011
LIBP 201920Z AUTO 24002KT 9999 NCD 26/18 Q1011
LIBP 201850Z AUTO 33003KT 9999 NCD 27/18 Q1011
LIBP 201820Z AUTO VRB01KT 9999 NCD 28/18 Q1011
LIBP 201750Z AUTO 04003KT 9999 NCD 29/18 Q1011
LIBP 201720Z AUTO 05003KT 9999 NCD 30/19 Q1010
LIBP 201650Z AUTO 05005KT 9999 NCD 30/18 Q1010
LIBP 201620Z AUTO 07006KT 9999 NCD 30/18 Q1010
LIBP 201550Z AUTO 06006KT 9999 NCD 30/18 Q1011
LIBP 201520Z AUTO 07007KT 9999 FEW220/// 30/17 Q1011
LIBP 201450Z AUTO 06010KT 9999 NCD 31/16 Q1011
LIBP 201420Z AUTO 05007KT 9999 NCD 31/16 Q1011
LIBP 201350Z AUTO 07006KT 040V100 9999 NCD 31/17 Q1011
LIBP 201320Z AUTO 08008KT 9999 NCD 30/16 Q1012
LIBP 201250Z AUTO 09006KT 040V120 9999 FEW210/// 32/16 Q1012
LIBP 201220Z AUTO 07009KT 9999 SCT210/// SCT240/// 31/16 Q1012
LIBP 201150Z AUTO 07010KT 9999 NCD 31/16 Q1012
LIBP 201120Z AUTO 08009KT 9999 NCD 32/15 Q1012
LIBP 201050Z AUTO 08010KT 050V110 9999 NCD 32/16 Q1013
LIBP 201020Z AUTO 07010KT 040V100 9999 BKN190/// 31/16 Q1012
LIBP 200950Z AUTO 07008KT 040V110 9999 FEW190/// 31/17 Q1012
LIBP 200920Z AUTO 06008KT 9999 NCD 30/17 Q1013
LIBP 200850Z AUTO 05008KT 9999 NCD 30/18 Q1013
LIBP 200820Z AUTO VRB02KT 9999 NCD 32/16 Q1013
LIBP 200750Z AUTO 21003KT 160V310 9999 FEW230/// 31/16 Q1013
LIBP 200720Z AUTO VRB02KT 9999 NCD 30/16 Q1013
LIBP 200650Z AUTO 17003KT 140V200 9999 NCD 28/17 Q1014
LIBP 200620Z AUTO 21003KT 9999 NCD 26/17 Q1014
LIBP 200550Z AUTO 22003KT 9999 NCD 24/17 Q1014
LIBP 200520Z AUTO 22005KT 9999 NCD 22/17 Q1014
LIBP 200450Z AUTO 22004KT 200V270 9999 NCD 21/17 Q1014
LIBP 200420Z AUTO 21004KT 9999 NCD 19/17 Q1014
LIBP 200350Z AUTO 23005KT 9999 NCD 18/16 Q1014
LIBP 200320Z AUTO 24005KT 9999 NCD 19/16 Q1014
LIBP 200250Z AUTO 22005KT 9999 NCD 19/16 Q1014
LIBP 200220Z AUTO 24003KT 9999 NCD 19/16 Q1013
LIBP 200150Z AUTO 24003KT 9999 NCD 20/17 Q1013
LIBP 200120Z AUTO 23002KT 9999 NCD 20/16 Q1013
LIBP 200050Z AUTO 22004KT 9999 NCD 20/16 Q1013
LIBP 200020Z AUTO 25003KT 220V280 9999 NCD 21/16 Q1013
LIBP 192350Z AUTO 20004KT 9999 NCD 21/16 Q1013
LIBP 192320Z AUTO 23002KT 9999 NCD 22/17 Q1014
LIBP 192250Z AUTO 24004KT 9999 NCD 22/16 Q1014
LIBP 192220Z AUTO 20003KT 9999 NCD 22/17 Q1014
LIBP 192150Z AUTO 23005KT 9999 NCD 21/16 Q1014
LIBP 192120Z AUTO 23004KT 9999 NCD 23/16 Q1014
LIBP 192050Z AUTO VRB01KT 9999 NCD 23/16 Q1015
LIBP 192020Z AUTO VRB01KT 9999 NCD 23/15 Q1014
LIBP 191950Z AUTO VRB02KT 9999 NCD 24/16 Q1014
LIBP 191920Z AUTO VRB02KT 9999 NCD 26/16 Q1014
LIBP 191850Z AUTO 06003KT 9999 NCD 27/15 Q1014
LIBP 191820Z AUTO 06004KT 9999 NCD 26/15 Q1014
LIBP 191750Z AUTO 05005KT 9999 NCD 27/15 Q1014
LIBP 191720Z AUTO 05004KT 9999 NCD 28/16 Q1014
LIBP 191650Z AUTO 07005KT 9999 NCD 28/17 Q1014
LIBP 191620Z AUTO 07006KT 9999 NCD 28/16 Q1014
LIBP 191550Z AUTO 05005KT 020V080 9999 NCD 29/17 Q1014
LIBP 191520Z AUTO 05005KT 9999 NCD 29/17 Q1014
LIBP 191450Z AUTO 06005KT 030V090 9999 NCD 29/17 Q1015
LIBP 191420Z AUTO 05006KT 010V080 9999 NCD 29/17 Q1015
LIBP 191350Z AUTO 06007KT 360V090 9999 NCD 29/17 Q1015
LIBP 191320Z AUTO 07008KT 9999 NCD 29/17 Q1015
LIBP 191250Z AUTO 07009KT 030V090 9999 NCD 29/17 Q1015
LIBP 191220Z AUTO 07009KT 9999 NCD 29/17 Q1015
LIBP 191150Z AUTO 07008KT 050V110 9999 NCD 28/18 Q1015
LIBP 191120Z AUTO 07009KT 9999 NCD 28/18 Q1015
LIBP 191050Z AUTO 07010KT 040V100 9999 NCD 28/18 Q1016
LIBP 191020Z AUTO 06011KT 9999 NCD 30/19 Q1016
LIBP 190950Z AUTO 05010KT 9999 NCD 31/18 Q1015
LIBP 190920Z AUTO 06009KT 9999 NCD 31/18 Q1015
LIBP 190850Z AUTO 06008KT 9999 NCD 31/19 Q1016
LIBP 190820Z AUTO VRB02KT 9999 NCD 32/16 Q1016
LIBP 190750Z AUTO 25005KT 210V280 9999 NCD 31/17 Q1016
LIBP 190720Z AUTO 24005KT 210V280 9999 NCD 30/17 Q1016
LIBP 190650Z AUTO 25005KT 210V280 9999 NCD 28/17 Q1017
LIBP 190620Z AUTO 23006KT 9999 NCD 27/18 Q1017
LIBP 190550Z AUTO 25004KT 220V280 9999 NCD 26/18 Q1017
LIBP 190520Z AUTO 22003KT 9999 NCD 23/17 Q1017
LIBP 190450Z AUTO 20004KT 9999 NCD 21/17 Q1017
LIBP 190420Z AUTO 22003KT 9999 NCD 19/16 Q1017
LIBP 190350Z AUTO 21005KT 9999 NCD 18/16 Q1016
LIBP 190320Z AUTO 21005KT 9999 NCD 18/15 Q1016
LIBP 190250Z AUTO 20004KT 9999 NCD 18/15 Q1016
LIBP 190220Z AUTO 22005KT 9999 NCD 18/15 Q1016
LIBP 190150Z AUTO 22007KT 9999 NCD 18/15 Q1016
LIBP 190120Z AUTO 22006KT 9999 NCD 18/15 Q1016
LIBP 190050Z AUTO 21005KT 9999 NCD 18/15 Q1016
LIBP 190020Z AUTO 23004KT 9999 NCD 19/15 Q1016
LIBP 182350Z AUTO 22004KT 9999 NCD 18/15 Q1017
LIBP 182320Z AUTO 19004KT 9999 NCD 20/14 Q1017
LIBP 182250Z AUTO 23005KT 9999 NCD 20/15 Q1017
LIBP 182220Z AUTO 22004KT 9999 NCD 20/14 Q1017
LIBP 182150Z AUTO 23004KT 9999 NCD 21/14 Q1017
LIBP 182120Z AUTO VRB02KT 9999 NCD 21/15 Q1017
LIBP 182050Z AUTO 23005KT 9999 NCD 21/14 Q1017
LIBP 182020Z AUTO 24005KT 9999 NCD 23/14 Q1017
LIBP 181950Z AUTO VRB02KT 9999 NCD 23/14 Q1017
LIBP 181920Z AUTO 35002KT 9999 NCD 24/14 Q1017
LIBP 181850Z AUTO 02004KT 9999 NCD 25/14 Q1017
LIBP 181820Z AUTO 04005KT 9999 NCD 25/15 Q1017
LIBP 181750Z AUTO 05005KT 9999 NCD 27/15 Q1016
LIBP 181720Z AUTO 07004KT 040V100 9999 NCD 28/15 Q1016
LIBP 181650Z AUTO 06007KT 9999 NCD 28/15 Q1016
LIBP 181620Z AUTO 08005KT 060V130 9999 NCD 29/15 Q1017
LIBP 181550Z AUTO 09005KT 030V120 9999 NCD 29/14 Q1017
LIBP 181520Z AUTO 09006KT 060V130 9999 NCD 29/16 Q1017
LIBP 181450Z AUTO 08007KT 9999 NCD 29/16 Q1017
LIBP 181420Z AUTO 07010KT 9999 NCD 28/18 Q1017
LIBP 181350Z AUTO 06009KT 9999 NCD 28/20 Q1017
LIBP 181320Z AUTO 07008KT 9999 NCD 27/20 Q1017
LIBP 181250Z AUTO 06003KT 010V130 9999 BKN120/// BKN210/// 29/19 Q1017
LIBP 181220Z AUTO 23003KT 190V260 9999 BKN120/// 27/19 Q1017
LIBP 181150Z AUTO 24004KT 200V260 9999 FEW037/// BKN073/// BKN097/// 27/20 Q1018
LIBP 181120Z AUTO 22004KT 180V250 9999 BKN098/// 26/20 Q1018
LIBP 181050Z AUTO 23007KT 9999 FEW110/// BKN130/// 25/20 Q1018
LIBP 181020Z AUTO 25007KT 210V280 9999 -RA SCT045/// BKN140/// 22/20 Q1019 RERA
LIBP 180950Z AUTO 25004KT 180V300 9999 RA FEW088/// OVC100/// 22/18 Q1019
LIBP 180920Z AUTO 33011KT 290V360 9999 -RA FEW075/// BKN120/// BKN150/// 24/17 Q1019
LIBP 180850Z AUTO 04010KT 9999 SCT091/// BKN180/// BKN210/// 26/16 Q1019
LIBP 180820Z AUTO 06007KT 9999 FEW130/// BKN170/// 26/15 Q1018
LIBP 180750Z AUTO 08003KT 020V120 9999 BKN160/// 28/15 Q1018
LIBP 180720Z AUTO VRB02KT 9999 BKN170/// 26/14 Q1018
LIBP 180650Z AUTO VRB02KT 9999 BKN180/// 25/15 Q1018
LIBP 180620Z AUTO VRB02KT 9999 BKN190/// 24/15 Q1017
LIBP 180550Z AUTO VRB01KT 9999 NCD 22/14 Q1017
LIBP 180520Z AUTO VRB02KT 9999 NCD 19/13 Q1017
LIBP 180450Z AUTO 24004KT 9999 NCD 18/13 Q1017
LIBP 180420Z AUTO VRB01KT 9999 NCD 17/13 Q1017
LIBP 180350Z AUTO 22004KT 9999 NCD 16/12 Q1017
LIBP 180320Z AUTO 24004KT 9999 NCD 16/12 Q1017
LIBP 180250Z AUTO 22004KT 9999 NCD 17/12 Q1017
LIBP 180220Z AUTO VRB02KT 9999 NCD 17/13 Q1017
LIBP 180150Z AUTO 21004KT 9999 NCD 17/12 Q1017
LIBP 180120Z AUTO 26003KT 9999 NCD 18/13 Q1017
LIBP 180050Z AUTO 22005KT 9999 NCD 18/13 Q1017
LIBP 180020Z AUTO 21004KT 9999 NCD 17/13 Q1017
LIBP 172350Z AUTO VRB01KT 9999 NCD 18/14 Q1017
LIBP 172320Z AUTO VRB02KT 9999 NCD 18/14 Q1017
LIBP 172250Z AUTO 31002KT 9999 NCD 19/14 Q1017
LIBP 172220Z AUTO 04002KT 9999 NCD 20/14 Q1017
LIBP 172150Z AUTO VRB01KT 9999 NCD 20/15 Q1017
LIBP 172120Z AUTO 25004KT 9999 NCD 21/14 Q1017
LIBP 172050Z AUTO 20005KT 9999 NCD 21/15 Q1017
LIBP 172020Z AUTO VRB02KT 9999 NCD 22/15 Q1016
LIBP 171950Z AUTO 36003KT 9999 NCD 23/16 Q1016
LIBP 171920Z AUTO 35003KT 9999 NCD 24/16 Q1016
LIBP 171850Z AUTO 36004KT 9999 NCD 25/16 Q1016
LIBP 171820Z AUTO 03006KT 9999 NCD 25/16 Q1016
LIBP 171750Z AUTO 04005KT 9999 NCD 27/16 Q1016
LIBP 171720Z AUTO 05006KT 9999 NCD 28/16 Q1016

Informazioni elaborate utilizzando, tra l’altro, dati e prodotti del Servizio Meteorologico dell’Aeronautica Militare pubblicati sul sito www.meteoam.it e della National Oceanic and Atmospheric Administration (NOAA)

Ultimi caricamenti...


A9C-HIS Bahrain Gvt AW139A

 


A9C-HIA Bahrain Government AW139A

 


LX-JNC Luxaviation Bombardier XRS

Questo sito non utilizza cookie di profilazione. Il sito utilizza cookie tecnici, di analisi anonima di prima parte e di terze parti per servizi di social network.